sensor_id;sensor_type;location;lat;lon;timestamp;temperature;humidity
5459;DHT22;2752;49.992;8.422;2023-07-31T00:00:49;18.40;1.00
5459;DHT22;2752;49.992;8.422;2023-07-31T00:03:16;18.40;1.00
5459;DHT22;2752;49.992;8.422;2023-07-31T00:05:43;18.40;1.00
5459;DHT22;2752;49.992;8.422;2023-07-31T00:08:11;18.30;1.00
5459;DHT22;2752;49.992;8.422;2023-07-31T00:10:37;18.50;1.00
5459;DHT22;2752;49.992;8.422;2023-07-31T00:13:04;18.50;1.00
5459;DHT22;2752;49.992;8.422;2023-07-31T00:15:31;18.50;1.00
5459;DHT22;2752;49.992;8.422;2023-07-31T00:17:57;18.50;1.00
5459;DHT22;2752;49.992;8.422;2023-07-31T00:20:24;18.40;1.00
5459;DHT22;2752;49.992;8.422;2023-07-31T00:22:51;18.40;1.00
5459;DHT22;2752;49.992;8.422;2023-07-31T00:25:19;18.40;1.00
5459;DHT22;2752;49.992;8.422;2023-07-31T00:27:45;18.50;1.00
5459;DHT22;2752;49.992;8.422;2023-07-31T00:30:12;18.50;1.00
5459;DHT22;2752;49.992;8.422;2023-07-31T00:32:39;18.50;1.00
5459;DHT22;2752;49.992;8.422;2023-07-31T00:35:06;18.40;1.00
5459;DHT22;2752;49.992;8.422;2023-07-31T00:37:32;18.40;1.00
5459;DHT22;2752;49.992;8.422;2023-07-31T00:39:59;18.50;1.00
5459;DHT22;2752;49.992;8.422;2023-07-31T00:42:27;18.40;1.00
5459;DHT22;2752;49.992;8.422;2023-07-31T00:44:54;18.40;1.00
5459;DHT22;2752;49.992;8.422;2023-07-31T00:47:21;18.40;1.00
5459;DHT22;2752;49.992;8.422;2023-07-31T00:49:48;18.40;1.00
5459;DHT22;2752;49.992;8.422;2023-07-31T00:52:14;18.50;1.00
5459;DHT22;2752;49.992;8.422;2023-07-31T00:54:41;18.40;1.00
5459;DHT22;2752;49.992;8.422;2023-07-31T00:57:08;18.40;1.00
5459;DHT22;2752;49.992;8.422;2023-07-31T00:59:36;18.50;1.00
5459;DHT22;2752;49.992;8.422;2023-07-31T01:02:04;18.50;1.00
5459;DHT22;2752;49.992;8.422;2023-07-31T01:04:30;18.40;1.00
5459;DHT22;2752;49.992;8.422;2023-07-31T01:07:02;18.40;1.00
5459;DHT22;2752;49.992;8.422;2023-07-31T01:09:37;18.40;1.00
5459;DHT22;2752;49.992;8.422;2023-07-31T01:12:07;18.40;1.00
5459;DHT22;2752;49.992;8.422;2023-07-31T01:14:37;18.50;1.00
5459;DHT22;2752;49.992;8.422;2023-07-31T01:17:04;18.50;1.00
5459;DHT22;2752;49.992;8.422;2023-07-31T01:19:31;18.50;1.00
5459;DHT22;2752;49.992;8.422;2023-07-31T01:22:12;18.50;1.00
5459;DHT22;2752;49.992;8.422;2023-07-31T01:24:54;18.50;1.00
5459;DHT22;2752;49.992;8.422;2023-07-31T01:27:24;18.40;1.00
5459;DHT22;2752;49.992;8.422;2023-07-31T01:29:56;18.40;1.00
5459;DHT22;2752;49.992;8.422;2023-07-31T01:32:27;18.50;1.00
5459;DHT22;2752;49.992;8.422;2023-07-31T01:34:55;18.50;1.00
5459;DHT22;2752;49.992;8.422;2023-07-31T01:37:28;18.50;1.00
5459;DHT22;2752;49.992;8.422;2023-07-31T01:39:55;18.50;1.00
5459;DHT22;2752;49.992;8.422;2023-07-31T01:42:23;18.50;1.00
5459;DHT22;2752;49.992;8.422;2023-07-31T01:44:49;18.50;1.00
5459;DHT22;2752;49.992;8.422;2023-07-31T01:47:16;18.50;1.00
5459;DHT22;2752;49.992;8.422;2023-07-31T01:49:43;18.50;1.00
5459;DHT22;2752;49.992;8.422;2023-07-31T01:52:09;18.50;1.00
5459;DHT22;2752;49.992;8.422;2023-07-31T01:54:36;18.50;1.00
5459;DHT22;2752;49.992;8.422;2023-07-31T01:57:03;18.50;1.00
5459;DHT22;2752;49.992;8.422;2023-07-31T01:59:31;18.50;1.00
5459;DHT22;2752;49.992;8.422;2023-07-31T02:01:58;18.50;1.00
5459;DHT22;2752;49.992;8.422;2023-07-31T02:04:24;18.50;1.00
5459;DHT22;2752;49.992;8.422;2023-07-31T02:06:53;18.50;1.00
5459;DHT22;2752;49.992;8.422;2023-07-31T02:09:19;18.50;1.00
5459;DHT22;2752;49.992;8.422;2023-07-31T02:11:46;18.50;1.00
5459;DHT22;2752;49.992;8.422;2023-07-31T02:14:13;18.50;1.00
5459;DHT22;2752;49.992;8.422;2023-07-31T02:16:41;18.50;1.00
5459;DHT22;2752;49.992;8.422;2023-07-31T02:19:08;18.50;1.00
5459;DHT22;2752;49.992;8.422;2023-07-31T02:21:34;18.50;1.00
5459;DHT22;2752;49.992;8.422;2023-07-31T02:24:00;18.60;1.00
5459;DHT22;2752;49.992;8.422;2023-07-31T02:26:27;18.60;1.00
5459;DHT22;2752;49.992;8.422;2023-07-31T02:28:53;18.50;1.00
5459;DHT22;2752;49.992;8.422;2023-07-31T02:31:20;18.60;1.00
5459;DHT22;2752;49.992;8.422;2023-07-31T02:33:48;18.50;1.00
5459;DHT22;2752;49.992;8.422;2023-07-31T02:36:15;18.60;1.00
5459;DHT22;2752;49.992;8.422;2023-07-31T02:38:41;18.50;1.00
5459;DHT22;2752;49.992;8.422;2023-07-31T02:41:08;18.50;1.00
5459;DHT22;2752;49.992;8.422;2023-07-31T02:43:35;18.50;1.00
5459;DHT22;2752;49.992;8.422;2023-07-31T02:46:01;18.50;1.00
5459;DHT22;2752;49.992;8.422;2023-07-31T02:48:28;18.50;1.00
5459;DHT22;2752;49.992;8.422;2023-07-31T02:50:56;18.50;1.00
5459;DHT22;2752;49.992;8.422;2023-07-31T02:53:23;18.50;1.00
5459;DHT22;2752;49.992;8.422;2023-07-31T02:55:49;18.50;1.00
5459;DHT22;2752;49.992;8.422;2023-07-31T02:58:16;18.40;1.00
5459;DHT22;2752;49.992;8.422;2023-07-31T03:00:43;18.40;1.00
5459;DHT22;2752;49.992;8.422;2023-07-31T03:03:10;18.40;1.00
5459;DHT22;2752;49.992;8.422;2023-07-31T03:05:37;18.40;1.00
5459;DHT22;2752;49.992;8.422;2023-07-31T03:08:05;18.40;1.00
5459;DHT22;2752;49.992;8.422;2023-07-31T03:10:32;18.30;1.00
5459;DHT22;2752;49.992;8.422;2023-07-31T03:12:58;18.30;1.00
5459;DHT22;2752;49.992;8.422;2023-07-31T03:15:25;18.30;1.00
5459;DHT22;2752;49.992;8.422;2023-07-31T03:17:51;18.30;1.00
5459;DHT22;2752;49.992;8.422;2023-07-31T03:20:18;18.40;1.00
5459;DHT22;2752;49.992;8.422;2023-07-31T03:22:45;18.40;1.00
5459;DHT22;2752;49.992;8.422;2023-07-31T03:25:13;18.40;1.00
5459;DHT22;2752;49.992;8.422;2023-07-31T03:27:40;18.30;1.00
5459;DHT22;2752;49.992;8.422;2023-07-31T03:30:07;18.30;1.00
5459;DHT22;2752;49.992;8.422;2023-07-31T03:32:34;18.20;1.00
5459;DHT22;2752;49.992;8.422;2023-07-31T03:35:00;18.20;1.00
5459;DHT22;2752;49.992;8.422;2023-07-31T03:37:27;18.30;1.00
5459;DHT22;2752;49.992;8.422;2023-07-31T03:39:54;18.30;1.00
5459;DHT22;2752;49.992;8.422;2023-07-31T03:42:22;18.30;1.00
5459;DHT22;2752;49.992;8.422;2023-07-31T03:44:49;18.30;1.00
5459;DHT22;2752;49.992;8.422;2023-07-31T03:47:16;18.20;1.00
5459;DHT22;2752;49.992;8.422;2023-07-31T03:49:42;18.20;1.00
5459;DHT22;2752;49.992;8.422;2023-07-31T03:52:09;18.10;1.00
5459;DHT22;2752;49.992;8.422;2023-07-31T03:54:35;18.20;1.00
5459;DHT22;2752;49.992;8.422;2023-07-31T03:57:03;18.10;1.00
5459;DHT22;2752;49.992;8.422;2023-07-31T03:59:31;18.10;1.00
5459;DHT22;2752;49.992;8.422;2023-07-31T04:01:57;18.10;1.00
5459;DHT22;2752;49.992;8.422;2023-07-31T04:04:24;18.20;1.00
5459;DHT22;2752;49.992;8.422;2023-07-31T04:06:50;18.20;1.00
5459;DHT22;2752;49.992;8.422;2023-07-31T04:09:17;18.10;1.00
5459;DHT22;2752;49.992;8.422;2023-07-31T04:11:44;18.10;1.00
5459;DHT22;2752;49.992;8.422;2023-07-31T04:14:10;18.00;1.00
5459;DHT22;2752;49.992;8.422;2023-07-31T04:16:39;18.10;1.00
5459;DHT22;2752;49.992;8.422;2023-07-31T04:19:05;18.10;1.00
5459;DHT22;2752;49.992;8.422;2023-07-31T04:21:32;18.10;1.00
5459;DHT22;2752;49.992;8.422;2023-07-31T04:23:58;18.00;1.00
5459;DHT22;2752;49.992;8.422;2023-07-31T04:26:25;18.00;1.00
5459;DHT22;2752;49.992;8.422;2023-07-31T04:28:52;18.00;1.00
5459;DHT22;2752;49.992;8.422;2023-07-31T04:31:18;17.90;1.00
5459;DHT22;2752;49.992;8.422;2023-07-31T04:33:46;17.90;1.00
5459;DHT22;2752;49.992;8.422;2023-07-31T04:36:13;17.90;1.00
5459;DHT22;2752;49.992;8.422;2023-07-31T04:38:40;17.80;1.00
5459;DHT22;2752;49.992;8.422;2023-07-31T04:41:07;17.90;1.00
5459;DHT22;2752;49.992;8.422;2023-07-31T04:43:34;17.90;1.00
5459;DHT22;2752;49.992;8.422;2023-07-31T04:46:00;17.90;1.00
5459;DHT22;2752;49.992;8.422;2023-07-31T04:48:27;17.90;1.00
5459;DHT22;2752;49.992;8.422;2023-07-31T04:50:55;17.90;1.00
5459;DHT22;2752;49.992;8.422;2023-07-31T04:53:21;17.90;1.00
5459;DHT22;2752;49.992;8.422;2023-07-31T04:55:48;18.00;1.00
5459;DHT22;2752;49.992;8.422;2023-07-31T04:58:15;18.00;1.00
5459;DHT22;2752;49.992;8.422;2023-07-31T05:00:41;18.00;1.00
5459;DHT22;2752;49.992;8.422;2023-07-31T05:03:08;18.20;1.00
5459;DHT22;2752;49.992;8.422;2023-07-31T05:05:36;18.10;1.00
5459;DHT22;2752;49.992;8.422;2023-07-31T05:08:04;18.10;1.00
5459;DHT22;2752;49.992;8.422;2023-07-31T05:10:30;18.10;1.00
5459;DHT22;2752;49.992;8.422;2023-07-31T05:12:57;18.20;1.00
5459;DHT22;2752;49.992;8.422;2023-07-31T05:15:24;18.10;1.00
5459;DHT22;2752;49.992;8.422;2023-07-31T05:17:50;18.10;1.00
5459;DHT22;2752;49.992;8.422;2023-07-31T05:20:17;18.10;1.00
5459;DHT22;2752;49.992;8.422;2023-07-31T05:22:44;18.20;1.00
5459;DHT22;2752;49.992;8.422;2023-07-31T05:25:12;18.20;1.00
5459;DHT22;2752;49.992;8.422;2023-07-31T05:27:38;18.30;1.00
5459;DHT22;2752;49.992;8.422;2023-07-31T05:30:06;18.30;1.00
5459;DHT22;2752;49.992;8.422;2023-07-31T05:32:33;18.30;1.00
5459;DHT22;2752;49.992;8.422;2023-07-31T05:35:00;18.30;1.00
5459;DHT22;2752;49.992;8.422;2023-07-31T05:37:26;18.30;1.00
5459;DHT22;2752;49.992;8.422;2023-07-31T05:39:53;18.30;1.00
5459;DHT22;2752;49.992;8.422;2023-07-31T05:42:21;18.30;1.00
5459;DHT22;2752;49.992;8.422;2023-07-31T05:44:48;18.30;1.00
5459;DHT22;2752;49.992;8.422;2023-07-31T05:47:14;18.20;1.00
5459;DHT22;2752;49.992;8.422;2023-07-31T05:49:41;18.30;1.00
5459;DHT22;2752;49.992;8.422;2023-07-31T05:52:08;18.40;1.00
5459;DHT22;2752;49.992;8.422;2023-07-31T05:54:34;18.40;1.00
5459;DHT22;2752;49.992;8.422;2023-07-31T05:57:01;18.40;1.00
5459;DHT22;2752;49.992;8.422;2023-07-31T05:59:29;18.50;1.00
5459;DHT22;2752;49.992;8.422;2023-07-31T06:01:58;18.50;1.00
5459;DHT22;2752;49.992;8.422;2023-07-31T06:04:25;18.50;1.00
5459;DHT22;2752;49.992;8.422;2023-07-31T06:06:51;18.60;1.00
5459;DHT22;2752;49.992;8.422;2023-07-31T06:09:18;18.70;1.00
5459;DHT22;2752;49.992;8.422;2023-07-31T06:11:45;18.80;1.00
5459;DHT22;2752;49.992;8.422;2023-07-31T06:14:12;18.90;1.00
5459;DHT22;2752;49.992;8.422;2023-07-31T06:16:40;19.10;1.00
5459;DHT22;2752;49.992;8.422;2023-07-31T06:19:06;19.30;1.00
5459;DHT22;2752;49.992;8.422;2023-07-31T06:21:33;19.30;1.00
5459;DHT22;2752;49.992;8.422;2023-07-31T06:24:02;19.40;1.00
5459;DHT22;2752;49.992;8.422;2023-07-31T06:26:29;19.50;1.00
5459;DHT22;2752;49.992;8.422;2023-07-31T06:28:56;19.60;1.00
5459;DHT22;2752;49.992;8.422;2023-07-31T06:31:22;19.70;1.00
5459;DHT22;2752;49.992;8.422;2023-07-31T06:33:51;19.80;1.00
5459;DHT22;2752;49.992;8.422;2023-07-31T06:36:17;19.80;1.00
5459;DHT22;2752;49.992;8.422;2023-07-31T06:38:44;19.90;1.00
5459;DHT22;2752;49.992;8.422;2023-07-31T06:41:11;20.10;1.00
5459;DHT22;2752;49.992;8.422;2023-07-31T06:43:37;20.10;1.00
5459;DHT22;2752;49.992;8.422;2023-07-31T06:46:05;20.10;1.00
5459;DHT22;2752;49.992;8.422;2023-07-31T06:48:32;20.40;1.00
5459;DHT22;2752;49.992;8.422;2023-07-31T06:51:00;20.40;1.00
5459;DHT22;2752;49.992;8.422;2023-07-31T06:53:27;20.40;1.00
5459;DHT22;2752;49.992;8.422;2023-07-31T06:55:54;20.50;1.00
5459;DHT22;2752;49.992;8.422;2023-07-31T06:58:21;20.50;1.00
5459;DHT22;2752;49.992;8.422;2023-07-31T07:00:47;20.60;1.00
5459;DHT22;2752;49.992;8.422;2023-07-31T07:03:14;20.60;1.00
5459;DHT22;2752;49.992;8.422;2023-07-31T07:05:41;20.60;1.00
5459;DHT22;2752;49.992;8.422;2023-07-31T07:08:09;20.60;1.00
5459;DHT22;2752;49.992;8.422;2023-07-31T07:10:36;20.50;1.00
5459;DHT22;2752;49.992;8.422;2023-07-31T07:13:03;20.50;1.00
5459;DHT22;2752;49.992;8.422;2023-07-31T07:15:30;20.50;1.00
5459;DHT22;2752;49.992;8.422;2023-07-31T07:17:56;20.50;1.00
5459;DHT22;2752;49.992;8.422;2023-07-31T07:20:23;20.70;1.00
5459;DHT22;2752;49.992;8.422;2023-07-31T07:22:50;20.80;1.00
5459;DHT22;2752;49.992;8.422;2023-07-31T07:25:18;21.10;1.00
5459;DHT22;2752;49.992;8.422;2023-07-31T07:27:45;21.30;1.00
5459;DHT22;2752;49.992;8.422;2023-07-31T07:30:11;21.50;1.00
5459;DHT22;2752;49.992;8.422;2023-07-31T07:32:39;21.70;1.00
5459;DHT22;2752;49.992;8.422;2023-07-31T07:35:07;21.80;1.00
5459;DHT22;2752;49.992;8.422;2023-07-31T07:37:33;22.00;1.00
5459;DHT22;2752;49.992;8.422;2023-07-31T07:40:00;22.00;1.00
5459;DHT22;2752;49.992;8.422;2023-07-31T07:42:28;22.00;1.00
5459;DHT22;2752;49.992;8.422;2023-07-31T07:44:55;22.10;1.00
5459;DHT22;2752;49.992;8.422;2023-07-31T07:47:21;22.20;1.00
5459;DHT22;2752;49.992;8.422;2023-07-31T07:49:48;22.10;1.00
5459;DHT22;2752;49.992;8.422;2023-07-31T07:52:15;22.00;1.00
5459;DHT22;2752;49.992;8.422;2023-07-31T07:54:41;22.00;1.00
5459;DHT22;2752;49.992;8.422;2023-07-31T07:57:08;22.10;1.00
5459;DHT22;2752;49.992;8.422;2023-07-31T07:59:36;22.20;1.00
5459;DHT22;2752;49.992;8.422;2023-07-31T08:02:03;22.10;1.00
5459;DHT22;2752;49.992;8.422;2023-07-31T08:04:30;22.20;1.00
5459;DHT22;2752;49.992;8.422;2023-07-31T08:06:56;22.30;1.00
5459;DHT22;2752;49.992;8.422;2023-07-31T08:09:23;22.30;1.00
5459;DHT22;2752;49.992;8.422;2023-07-31T08:11:50;22.10;1.00
5459;DHT22;2752;49.992;8.422;2023-07-31T08:14:16;22.00;1.00
5459;DHT22;2752;49.992;8.422;2023-07-31T08:16:44;21.90;1.00
5459;DHT22;2752;49.992;8.422;2023-07-31T08:19:11;21.70;1.00
5459;DHT22;2752;49.992;8.422;2023-07-31T08:21:38;21.70;1.00
5459;DHT22;2752;49.992;8.422;2023-07-31T08:24:04;21.70;1.00
5459;DHT22;2752;49.992;8.422;2023-07-31T08:26:31;21.60;1.00
5459;DHT22;2752;49.992;8.422;2023-07-31T08:28:58;21.70;1.00
5459;DHT22;2752;49.992;8.422;2023-07-31T08:31:24;21.80;1.00
5459;DHT22;2752;49.992;8.422;2023-07-31T08:33:53;21.90;1.00
5459;DHT22;2752;49.992;8.422;2023-07-31T08:36:20;22.00;1.00
5459;DHT22;2752;49.992;8.422;2023-07-31T08:38:47;22.20;1.00
5459;DHT22;2752;49.992;8.422;2023-07-31T08:41:13;22.30;1.00
5459;DHT22;2752;49.992;8.422;2023-07-31T08:43:42;22.30;1.00
5459;DHT22;2752;49.992;8.422;2023-07-31T08:46:09;22.50;1.00
5459;DHT22;2752;49.992;8.422;2023-07-31T08:48:37;22.70;1.00
5459;DHT22;2752;49.992;8.422;2023-07-31T08:51:06;22.80;1.00
5459;DHT22;2752;49.992;8.422;2023-07-31T08:53:32;22.70;1.00
5459;DHT22;2752;49.992;8.422;2023-07-31T08:55:59;22.50;1.00
5459;DHT22;2752;49.992;8.422;2023-07-31T08:58:27;22.40;1.00
5459;DHT22;2752;49.992;8.422;2023-07-31T09:00:55;22.30;1.00
5459;DHT22;2752;49.992;8.422;2023-07-31T09:03:24;22.20;1.00
5459;DHT22;2752;49.992;8.422;2023-07-31T09:05:53;22.30;1.00
5459;DHT22;2752;49.992;8.422;2023-07-31T09:08:22;22.00;1.00
5459;DHT22;2752;49.992;8.422;2023-07-31T09:10:49;22.00;1.00
5459;DHT22;2752;49.992;8.422;2023-07-31T09:13:16;22.00;1.00
5459;DHT22;2752;49.992;8.422;2023-07-31T09:15:45;21.90;1.00
5459;DHT22;2752;49.992;8.422;2023-07-31T09:18:12;21.90;1.00
5459;DHT22;2752;49.992;8.422;2023-07-31T09:20:39;21.90;1.00
5459;DHT22;2752;49.992;8.422;2023-07-31T09:23:08;22.00;1.00
5459;DHT22;2752;49.992;8.422;2023-07-31T09:25:37;22.30;1.00
5459;DHT22;2752;49.992;8.422;2023-07-31T09:28:07;22.40;1.00
5459;DHT22;2752;49.992;8.422;2023-07-31T09:30:45;22.70;1.00
5459;DHT22;2752;49.992;8.422;2023-07-31T09:33:12;22.90;1.00
5459;DHT22;2752;49.992;8.422;2023-07-31T09:35:39;22.90;1.00
5459;DHT22;2752;49.992;8.422;2023-07-31T09:38:08;22.80;1.00
5459;DHT22;2752;49.992;8.422;2023-07-31T09:40:38;22.90;1.00
5459;DHT22;2752;49.992;8.422;2023-07-31T09:43:06;22.90;1.00
5459;DHT22;2752;49.992;8.422;2023-07-31T09:45:35;22.90;1.00
5459;DHT22;2752;49.992;8.422;2023-07-31T09:48:03;22.80;1.00
5459;DHT22;2752;49.992;8.422;2023-07-31T09:50:30;22.80;1.00
5459;DHT22;2752;49.992;8.422;2023-07-31T09:52:56;22.90;1.00
5459;DHT22;2752;49.992;8.422;2023-07-31T09:55:24;23.00;1.00
5459;DHT22;2752;49.992;8.422;2023-07-31T09:57:54;23.10;1.00
5459;DHT22;2752;49.992;8.422;2023-07-31T10:00:23;23.10;1.00
5459;DHT22;2752;49.992;8.422;2023-07-31T10:02:53;23.00;1.00
5459;DHT22;2752;49.992;8.422;2023-07-31T10:05:21;22.90;1.00
5459;DHT22;2752;49.992;8.422;2023-07-31T10:07:54;22.90;1.00
5459;DHT22;2752;49.992;8.422;2023-07-31T10:10:22;23.00;1.00
5459;DHT22;2752;49.992;8.422;2023-07-31T10:12:49;22.70;1.00
5459;DHT22;2752;49.992;8.422;2023-07-31T10:15:17;23.00;1.00
5459;DHT22;2752;49.992;8.422;2023-07-31T10:17:44;23.00;1.00
5459;DHT22;2752;49.992;8.422;2023-07-31T10:20:12;23.00;1.00
5459;DHT22;2752;49.992;8.422;2023-07-31T10:22:42;23.00;1.00
5459;DHT22;2752;49.992;8.422;2023-07-31T10:25:09;23.10;1.00
5459;DHT22;2752;49.992;8.422;2023-07-31T10:27:36;23.10;1.00
5459;DHT22;2752;49.992;8.422;2023-07-31T10:30:07;23.30;1.00
5459;DHT22;2752;49.992;8.422;2023-07-31T10:32:36;23.50;1.00
5459;DHT22;2752;49.992;8.422;2023-07-31T10:35:04;23.60;1.00
5459;DHT22;2752;49.992;8.422;2023-07-31T10:37:36;24.00;1.00
5459;DHT22;2752;49.992;8.422;2023-07-31T10:40:05;24.10;1.00
5459;DHT22;2752;49.992;8.422;2023-07-31T10:42:35;24.10;1.00
5459;DHT22;2752;49.992;8.422;2023-07-31T10:45:03;24.10;1.00
5459;DHT22;2752;49.992;8.422;2023-07-31T10:47:31;23.80;1.00
5459;DHT22;2752;49.992;8.422;2023-07-31T10:50:19;23.80;1.00
5459;DHT22;2752;49.992;8.422;2023-07-31T10:52:47;23.70;1.00
5459;DHT22;2752;49.992;8.422;2023-07-31T10:55:26;23.80;1.00
5459;DHT22;2752;49.992;8.422;2023-07-31T10:57:53;23.60;1.00
5459;DHT22;2752;49.992;8.422;2023-07-31T11:00:22;23.60;1.00
5459;DHT22;2752;49.992;8.422;2023-07-31T11:03:03;23.80;1.00
5459;DHT22;2752;49.992;8.422;2023-07-31T11:05:46;23.80;1.00
5459;DHT22;2752;49.992;8.422;2023-07-31T11:08:14;23.90;1.00
5459;DHT22;2752;49.992;8.422;2023-07-31T11:10:42;23.80;1.00
5459;DHT22;2752;49.992;8.422;2023-07-31T11:13:09;23.80;1.00
5459;DHT22;2752;49.992;8.422;2023-07-31T11:15:36;23.70;1.00
5459;DHT22;2752;49.992;8.422;2023-07-31T11:18:03;23.70;1.00
5459;DHT22;2752;49.992;8.422;2023-07-31T11:20:31;23.90;1.00
5459;DHT22;2752;49.992;8.422;2023-07-31T11:23:00;24.10;1.00
5459;DHT22;2752;49.992;8.422;2023-07-31T11:25:29;24.10;1.00
5459;DHT22;2752;49.992;8.422;2023-07-31T11:27:56;24.30;1.00
5459;DHT22;2752;49.992;8.422;2023-07-31T11:30:23;24.10;1.00
5459;DHT22;2752;49.992;8.422;2023-07-31T11:32:50;24.00;1.00
5459;DHT22;2752;49.992;8.422;2023-07-31T11:35:17;24.00;1.00
5459;DHT22;2752;49.992;8.422;2023-07-31T11:37:44;24.00;1.00
5459;DHT22;2752;49.992;8.422;2023-07-31T11:40:13;24.10;1.00
5459;DHT22;2752;49.992;8.422;2023-07-31T11:42:40;24.10;1.00
5459;DHT22;2752;49.992;8.422;2023-07-31T11:45:08;24.00;1.00
5459;DHT22;2752;49.992;8.422;2023-07-31T11:47:36;24.00;1.00
5459;DHT22;2752;49.992;8.422;2023-07-31T11:50:05;24.10;1.00
5459;DHT22;2752;49.992;8.422;2023-07-31T11:52:37;24.20;1.00
5459;DHT22;2752;49.992;8.422;2023-07-31T11:55:07;24.10;1.00
5459;DHT22;2752;49.992;8.422;2023-07-31T11:57:37;24.10;1.00
5459;DHT22;2752;49.992;8.422;2023-07-31T12:00:06;24.10;1.00
5459;DHT22;2752;49.992;8.422;2023-07-31T12:02:34;24.10;1.00
5459;DHT22;2752;49.992;8.422;2023-07-31T12:05:01;24.10;1.00
5459;DHT22;2752;49.992;8.422;2023-07-31T12:07:43;24.00;1.00
5459;DHT22;2752;49.992;8.422;2023-07-31T12:10:10;24.00;1.00
5459;DHT22;2752;49.992;8.422;2023-07-31T12:12:38;23.90;1.00
5459;DHT22;2752;49.992;8.422;2023-07-31T12:15:14;23.80;1.00
5459;DHT22;2752;49.992;8.422;2023-07-31T12:17:41;23.70;1.00
5459;DHT22;2752;49.992;8.422;2023-07-31T12:20:08;23.60;1.00
5459;DHT22;2752;49.992;8.422;2023-07-31T12:22:35;23.60;1.00
5459;DHT22;2752;49.992;8.422;2023-07-31T12:25:02;23.60;1.00
5459;DHT22;2752;49.992;8.422;2023-07-31T12:27:33;23.70;1.00
5459;DHT22;2752;49.992;8.422;2023-07-31T12:30:01;23.60;1.00
5459;DHT22;2752;49.992;8.422;2023-07-31T12:32:36;23.60;1.00
5459;DHT22;2752;49.992;8.422;2023-07-31T12:35:06;23.50;1.00
5459;DHT22;2752;49.992;8.422;2023-07-31T12:37:33;23.50;1.00
5459;DHT22;2752;49.992;8.422;2023-07-31T12:40:00;23.60;1.00
5459;DHT22;2752;49.992;8.422;2023-07-31T12:42:30;23.60;1.00
5459;DHT22;2752;49.992;8.422;2023-07-31T12:44:57;23.60;1.00
5459;DHT22;2752;49.992;8.422;2023-07-31T12:47:24;23.70;1.00
5459;DHT22;2752;49.992;8.422;2023-07-31T12:49:52;23.80;1.00
5459;DHT22;2752;49.992;8.422;2023-07-31T12:52:19;23.90;1.00
5459;DHT22;2752;49.992;8.422;2023-07-31T12:54:45;24.00;1.00
5459;DHT22;2752;49.992;8.422;2023-07-31T12:57:12;24.00;1.00
5459;DHT22;2752;49.992;8.422;2023-07-31T12:59:39;24.10;1.00
5459;DHT22;2752;49.992;8.422;2023-07-31T13:02:05;24.10;1.00
5459;DHT22;2752;49.992;8.422;2023-07-31T13:04:32;24.20;1.00
5459;DHT22;2752;49.992;8.422;2023-07-31T13:07:00;24.20;1.00
5459;DHT22;2752;49.992;8.422;2023-07-31T13:09:27;24.20;1.00
5459;DHT22;2752;49.992;8.422;2023-07-31T13:11:53;24.20;1.00
5459;DHT22;2752;49.992;8.422;2023-07-31T13:14:20;24.30;1.00
5459;DHT22;2752;49.992;8.422;2023-07-31T13:16:47;24.20;1.00
5459;DHT22;2752;49.992;8.422;2023-07-31T13:19:13;24.10;1.00
5459;DHT22;2752;49.992;8.422;2023-07-31T13:21:40;23.90;1.00
5459;DHT22;2752;49.992;8.422;2023-07-31T13:24:08;23.90;1.00
5459;DHT22;2752;49.992;8.422;2023-07-31T13:26:35;23.90;1.00
5459;DHT22;2752;49.992;8.422;2023-07-31T13:29:02;23.80;1.00
5459;DHT22;2752;49.992;8.422;2023-07-31T13:31:29;23.70;1.00
5459;DHT22;2752;49.992;8.422;2023-07-31T13:33:56;23.80;1.00
5459;DHT22;2752;49.992;8.422;2023-07-31T13:36:23;23.80;1.00
5459;DHT22;2752;49.992;8.422;2023-07-31T13:38:49;23.80;1.00
5459;DHT22;2752;49.992;8.422;2023-07-31T13:41:17;23.60;1.00
5459;DHT22;2752;49.992;8.422;2023-07-31T13:43:44;23.50;1.00
5459;DHT22;2752;49.992;8.422;2023-07-31T13:46:11;23.50;1.00
5459;DHT22;2752;49.992;8.422;2023-07-31T13:48:37;23.60;1.00
5459;DHT22;2752;49.992;8.422;2023-07-31T13:51:04;23.40;1.00
5459;DHT22;2752;49.992;8.422;2023-07-31T13:53:31;23.50;1.00
5459;DHT22;2752;49.992;8.422;2023-07-31T13:55:58;23.50;1.00
5459;DHT22;2752;49.992;8.422;2023-07-31T13:58:26;23.60;1.00
5459;DHT22;2752;49.992;8.422;2023-07-31T14:00:52;23.60;1.00
5459;DHT22;2752;49.992;8.422;2023-07-31T14:03:19;23.50;1.00
5459;DHT22;2752;49.992;8.422;2023-07-31T14:05:46;23.50;1.00
5459;DHT22;2752;49.992;8.422;2023-07-31T14:08:12;23.40;1.00
5459;DHT22;2752;49.992;8.422;2023-07-31T14:10:39;23.40;1.00
5459;DHT22;2752;49.992;8.422;2023-07-31T14:13:05;23.30;1.00
5459;DHT22;2752;49.992;8.422;2023-07-31T14:15:33;23.20;1.00
5459;DHT22;2752;49.992;8.422;2023-07-31T14:18:01;23.10;1.00
5459;DHT22;2752;49.992;8.422;2023-07-31T14:20:28;23.10;1.00
5459;DHT22;2752;49.992;8.422;2023-07-31T14:22:54;23.00;1.00
5459;DHT22;2752;49.992;8.422;2023-07-31T14:25:21;23.00;1.00
5459;DHT22;2752;49.992;8.422;2023-07-31T14:27:48;22.90;1.00
5459;DHT22;2752;49.992;8.422;2023-07-31T14:30:14;22.90;1.00
5459;DHT22;2752;49.992;8.422;2023-07-31T14:32:43;22.90;1.00
5459;DHT22;2752;49.992;8.422;2023-07-31T14:35:09;23.00;1.00
5459;DHT22;2752;49.992;8.422;2023-07-31T14:37:37;23.00;1.00
5459;DHT22;2752;49.992;8.422;2023-07-31T14:40:05;23.10;1.00
5459;DHT22;2752;49.992;8.422;2023-07-31T14:42:32;23.00;1.00
5459;DHT22;2752;49.992;8.422;2023-07-31T14:44:58;23.00;1.00
5459;DHT22;2752;49.992;8.422;2023-07-31T14:47:25;22.90;1.00
5459;DHT22;2752;49.992;8.422;2023-07-31T14:49:53;22.90;1.00
5459;DHT22;2752;49.992;8.422;2023-07-31T14:52:20;22.80;1.00
5459;DHT22;2752;49.992;8.422;2023-07-31T14:54:47;22.80;1.00
5459;DHT22;2752;49.992;8.422;2023-07-31T14:57:13;22.80;1.00
5459;DHT22;2752;49.992;8.422;2023-07-31T14:59:40;22.80;1.00
5459;DHT22;2752;49.992;8.422;2023-07-31T15:02:08;22.70;1.00
5459;DHT22;2752;49.992;8.422;2023-07-31T15:04:35;22.70;1.00
5459;DHT22;2752;49.992;8.422;2023-07-31T15:07:04;22.70;1.00
5459;DHT22;2752;49.992;8.422;2023-07-31T15:09:30;22.70;1.00
5459;DHT22;2752;49.992;8.422;2023-07-31T15:11:57;22.80;1.00
5459;DHT22;2752;49.992;8.422;2023-07-31T15:14:24;22.80;1.00
5459;DHT22;2752;49.992;8.422;2023-07-31T15:16:52;22.70;1.00
5459;DHT22;2752;49.992;8.422;2023-07-31T15:19:19;22.90;1.00
5459;DHT22;2752;49.992;8.422;2023-07-31T15:21:46;23.00;1.00
5459;DHT22;2752;49.992;8.422;2023-07-31T15:24:14;22.90;1.00
5459;DHT22;2752;49.992;8.422;2023-07-31T15:26:40;22.80;1.00
5459;DHT22;2752;49.992;8.422;2023-07-31T15:29:08;22.60;1.00
5459;DHT22;2752;49.992;8.422;2023-07-31T15:31:36;22.50;1.00
5459;DHT22;2752;49.992;8.422;2023-07-31T15:34:04;22.50;1.00
5459;DHT22;2752;49.992;8.422;2023-07-31T15:36:31;22.50;1.00
5459;DHT22;2752;49.992;8.422;2023-07-31T15:38:58;22.40;1.00
5459;DHT22;2752;49.992;8.422;2023-07-31T15:41:26;22.40;1.00
5459;DHT22;2752;49.992;8.422;2023-07-31T15:43:55;22.40;1.00
5459;DHT22;2752;49.992;8.422;2023-07-31T15:46:21;22.30;1.00
5459;DHT22;2752;49.992;8.422;2023-07-31T15:48:48;22.30;1.00
5459;DHT22;2752;49.992;8.422;2023-07-31T15:51:15;22.30;1.00
5459;DHT22;2752;49.992;8.422;2023-07-31T15:53:42;22.20;1.00
5459;DHT22;2752;49.992;8.422;2023-07-31T15:56:08;22.10;1.00
5459;DHT22;2752;49.992;8.422;2023-07-31T15:58:36;22.10;1.00
5459;DHT22;2752;49.992;8.422;2023-07-31T16:01:03;22.10;1.00
5459;DHT22;2752;49.992;8.422;2023-07-31T16:03:30;22.10;1.00
5459;DHT22;2752;49.992;8.422;2023-07-31T16:05:56;22.10;1.00
5459;DHT22;2752;49.992;8.422;2023-07-31T16:08:23;22.20;1.00
5459;DHT22;2752;49.992;8.422;2023-07-31T16:10:50;22.20;1.00
5459;DHT22;2752;49.992;8.422;2023-07-31T16:13:17;22.30;1.00
5459;DHT22;2752;49.992;8.422;2023-07-31T16:15:45;22.30;1.00
5459;DHT22;2752;49.992;8.422;2023-07-31T16:18:11;22.40;1.00